sensor_id;sensor_type;location;lat;lon;timestamp;P1;durP1;ratioP1;P2;durP2;ratioP2
1957;SDS011;979;51.076;13.748;2023-05-29T00:01:53;19.67;;;18.40;;
1957;SDS011;979;51.076;13.748;2023-05-29T00:04:21;18.47;;;17.57;;
1957;SDS011;979;51.076;13.748;2023-05-29T00:06:51;20.13;;;19.03;;
1957;SDS011;979;51.076;13.748;2023-05-29T00:09:20;21.20;;;19.97;;
1957;SDS011;979;51.076;13.748;2023-05-29T00:11:49;20.70;;;19.50;;
1957;SDS011;979;51.076;13.748;2023-05-29T00:14:21;20.50;;;19.10;;
1957;SDS011;979;51.076;13.748;2023-05-29T00:16:52;21.00;;;19.70;;
1957;SDS011;979;51.076;13.748;2023-05-29T00:19:21;19.50;;;18.27;;
1957;SDS011;979;51.076;13.748;2023-05-29T00:21:51;20.50;;;19.40;;
1957;SDS011;979;51.076;13.748;2023-05-29T00:24:19;19.23;;;18.30;;
1957;SDS011;979;51.076;13.748;2023-05-29T00:26:50;19.90;;;19.00;;
1957;SDS011;979;51.076;13.748;2023-05-29T00:29:21;21.37;;;20.03;;
1957;SDS011;979;51.076;13.748;2023-05-29T00:31:49;20.43;;;19.30;;
1957;SDS011;979;51.076;13.748;2023-05-29T00:34:21;20.10;;;18.80;;
1957;SDS011;979;51.076;13.748;2023-05-29T00:36:51;19.70;;;18.63;;
1957;SDS011;979;51.076;13.748;2023-05-29T00:39:21;20.27;;;18.80;;
1957;SDS011;979;51.076;13.748;2023-05-29T00:41:53;20.20;;;19.00;;
1957;SDS011;979;51.076;13.748;2023-05-29T00:44:21;20.67;;;19.57;;
1957;SDS011;979;51.076;13.748;2023-05-29T00:46:51;21.63;;;20.43;;
1957;SDS011;979;51.076;13.748;2023-05-29T00:49:20;20.57;;;19.37;;
1957;SDS011;979;51.076;13.748;2023-05-29T00:51:52;21.50;;;19.90;;
1957;SDS011;979;51.076;13.748;2023-05-29T00:54:21;22.00;;;20.37;;
1957;SDS011;979;51.076;13.748;2023-05-29T00:56:55;19.80;;;18.80;;
1957;SDS011;979;51.076;13.748;2023-05-29T00:59:25;20.93;;;19.73;;
1957;SDS011;979;51.076;13.748;2023-05-29T01:01:54;20.33;;;19.20;;
1957;SDS011;979;51.076;13.748;2023-05-29T01:04:24;19.47;;;18.33;;
1957;SDS011;979;51.076;13.748;2023-05-29T01:06:53;19.90;;;18.77;;
1957;SDS011;979;51.076;13.748;2023-05-29T01:09:22;20.53;;;19.27;;
1957;SDS011;979;51.076;13.748;2023-05-29T01:11:53;19.33;;;18.43;;
1957;SDS011;979;51.076;13.748;2023-05-29T01:14:33;19.50;;;18.33;;
1957;SDS011;979;51.076;13.748;2023-05-29T01:17:13;21.00;;;19.60;;
1957;SDS011;979;51.076;13.748;2023-05-29T01:20:01;21.10;;;19.97;;
1957;SDS011;979;51.076;13.748;2023-05-29T01:22:40;21.57;;;20.20;;
1957;SDS011;979;51.076;13.748;2023-05-29T01:25:29;21.30;;;19.90;;
1957;SDS011;979;51.076;13.748;2023-05-29T01:28:17;21.00;;;19.73;;
1957;SDS011;979;51.076;13.748;2023-05-29T01:30:49;19.03;;;17.90;;
1957;SDS011;979;51.076;13.748;2023-05-29T01:33:18;18.67;;;17.67;;
1957;SDS011;979;51.076;13.748;2023-05-29T01:35:49;20.80;;;19.43;;
1957;SDS011;979;51.076;13.748;2023-05-29T01:38:18;19.90;;;18.80;;
1957;SDS011;979;51.076;13.748;2023-05-29T01:40:49;19.27;;;18.10;;
1957;SDS011;979;51.076;13.748;2023-05-29T01:43:20;19.70;;;18.50;;
1957;SDS011;979;51.076;13.748;2023-05-29T01:45:49;19.53;;;18.33;;
1957;SDS011;979;51.076;13.748;2023-05-29T01:48:18;19.37;;;18.03;;
1957;SDS011;979;51.076;13.748;2023-05-29T01:50:48;20.13;;;18.83;;
1957;SDS011;979;51.076;13.748;2023-05-29T01:53:19;19.20;;;18.00;;
1957;SDS011;979;51.076;13.748;2023-05-29T01:55:51;19.77;;;18.70;;
1957;SDS011;979;51.076;13.748;2023-05-29T01:58:23;19.43;;;18.47;;
1957;SDS011;979;51.076;13.748;2023-05-29T02:00:54;19.50;;;18.50;;
1957;SDS011;979;51.076;13.748;2023-05-29T02:03:23;19.03;;;18.03;;
1957;SDS011;979;51.076;13.748;2023-05-29T02:05:56;19.57;;;18.57;;
1957;SDS011;979;51.076;13.748;2023-05-29T02:08:25;19.63;;;18.33;;
1957;SDS011;979;51.076;13.748;2023-05-29T02:10:54;18.80;;;17.83;;
1957;SDS011;979;51.076;13.748;2023-05-29T02:13:23;19.10;;;18.07;;
1957;SDS011;979;51.076;13.748;2023-05-29T02:15:52;18.03;;;17.13;;
1957;SDS011;979;51.076;13.748;2023-05-29T02:18:22;19.03;;;18.03;;
1957;SDS011;979;51.076;13.748;2023-05-29T02:20:50;18.77;;;17.80;;
1957;SDS011;979;51.076;13.748;2023-05-29T02:23:24;19.27;;;18.17;;
1957;SDS011;979;51.076;13.748;2023-05-29T02:25:52;19.27;;;18.13;;
1957;SDS011;979;51.076;13.748;2023-05-29T02:28:20;18.80;;;17.70;;
1957;SDS011;979;51.076;13.748;2023-05-29T02:30:50;18.90;;;17.87;;
1957;SDS011;979;51.076;13.748;2023-05-29T02:33:19;18.73;;;17.53;;
1957;SDS011;979;51.076;13.748;2023-05-29T02:35:47;19.87;;;18.40;;
1957;SDS011;979;51.076;13.748;2023-05-29T02:38:15;19.07;;;18.17;;
1957;SDS011;979;51.076;13.748;2023-05-29T02:40:44;17.60;;;16.80;;
1957;SDS011;979;51.076;13.748;2023-05-29T02:43:12;18.70;;;17.80;;
1957;SDS011;979;51.076;13.748;2023-05-29T02:45:41;19.50;;;18.30;;
1957;SDS011;979;51.076;13.748;2023-05-29T02:48:10;19.33;;;18.27;;
1957;SDS011;979;51.076;13.748;2023-05-29T02:50:39;19.10;;;18.10;;
1957;SDS011;979;51.076;13.748;2023-05-29T02:53:07;18.43;;;17.53;;
1957;SDS011;979;51.076;13.748;2023-05-29T02:55:35;19.63;;;18.40;;
1957;SDS011;979;51.076;13.748;2023-05-29T02:58:05;18.50;;;17.47;;
1957;SDS011;979;51.076;13.748;2023-05-29T03:00:34;18.70;;;17.70;;
1957;SDS011;979;51.076;13.748;2023-05-29T03:03:02;19.10;;;18.17;;
1957;SDS011;979;51.076;13.748;2023-05-29T03:05:35;18.53;;;17.53;;
1957;SDS011;979;51.076;13.748;2023-05-29T03:08:03;19.67;;;18.57;;
1957;SDS011;979;51.076;13.748;2023-05-29T03:10:32;19.67;;;18.57;;
1957;SDS011;979;51.076;13.748;2023-05-29T03:13:02;19.27;;;18.17;;
1957;SDS011;979;51.076;13.748;2023-05-29T03:15:34;18.30;;;17.40;;
1957;SDS011;979;51.076;13.748;2023-05-29T03:18:05;19.10;;;18.10;;
1957;SDS011;979;51.076;13.748;2023-05-29T03:20:36;18.97;;;17.90;;
1957;SDS011;979;51.076;13.748;2023-05-29T03:23:04;19.10;;;18.03;;
1957;SDS011;979;51.076;13.748;2023-05-29T03:25:35;19.07;;;17.90;;
1957;SDS011;979;51.076;13.748;2023-05-29T03:28:06;19.10;;;17.80;;
1957;SDS011;979;51.076;13.748;2023-05-29T03:30:37;18.60;;;17.63;;
1957;SDS011;979;51.076;13.748;2023-05-29T03:33:06;19.13;;;18.07;;
1957;SDS011;979;51.076;13.748;2023-05-29T03:35:55;19.67;;;18.47;;
1957;SDS011;979;51.076;13.748;2023-05-29T03:38:24;19.63;;;18.53;;
1957;SDS011;979;51.076;13.748;2023-05-29T03:40:56;18.20;;;17.10;;
1957;SDS011;979;51.076;13.748;2023-05-29T03:43:25;19.30;;;18.30;;
1957;SDS011;979;51.076;13.748;2023-05-29T03:45:53;17.93;;;17.13;;
1957;SDS011;979;51.076;13.748;2023-05-29T03:48:23;19.40;;;18.10;;
1957;SDS011;979;51.076;13.748;2023-05-29T03:50:51;18.13;;;17.43;;
1957;SDS011;979;51.076;13.748;2023-05-29T03:53:27;18.90;;;17.93;;
1957;SDS011;979;51.076;13.748;2023-05-29T03:55:56;18.60;;;17.70;;
1957;SDS011;979;51.076;13.748;2023-05-29T03:58:24;19.23;;;18.13;;
1957;SDS011;979;51.076;13.748;2023-05-29T04:00:56;19.30;;;18.10;;
1957;SDS011;979;51.076;13.748;2023-05-29T04:03:27;18.67;;;17.67;;
1957;SDS011;979;51.076;13.748;2023-05-29T04:05:57;18.90;;;17.90;;
1957;SDS011;979;51.076;13.748;2023-05-29T04:08:29;18.23;;;17.37;;
1957;SDS011;979;51.076;13.748;2023-05-29T04:10:57;19.47;;;18.07;;
1957;SDS011;979;51.076;13.748;2023-05-29T04:13:27;18.53;;;17.27;;
1957;SDS011;979;51.076;13.748;2023-05-29T04:15:55;19.50;;;18.20;;
1957;SDS011;979;51.076;13.748;2023-05-29T04:18:26;18.87;;;17.77;;
1957;SDS011;979;51.076;13.748;2023-05-29T04:20:54;18.83;;;17.83;;
1957;SDS011;979;51.076;13.748;2023-05-29T04:23:23;18.97;;;17.83;;
1957;SDS011;979;51.076;13.748;2023-05-29T04:25:55;20.27;;;18.73;;
1957;SDS011;979;51.076;13.748;2023-05-29T04:28:25;18.67;;;17.77;;
1957;SDS011;979;51.076;13.748;2023-05-29T04:30:55;19.00;;;18.00;;
1957;SDS011;979;51.076;13.748;2023-05-29T04:33:24;20.13;;;19.00;;
1957;SDS011;979;51.076;13.748;2023-05-29T04:35:56;19.20;;;18.20;;
1957;SDS011;979;51.076;13.748;2023-05-29T04:38:27;19.10;;;17.57;;
1957;SDS011;979;51.076;13.748;2023-05-29T04:40:58;19.40;;;18.30;;
1957;SDS011;979;51.076;13.748;2023-05-29T04:43:27;19.20;;;18.23;;
1957;SDS011;979;51.076;13.748;2023-05-29T04:46:05;19.03;;;17.83;;
1957;SDS011;979;51.076;13.748;2023-05-29T04:48:39;18.30;;;17.20;;
1957;SDS011;979;51.076;13.748;2023-05-29T04:51:08;17.93;;;17.20;;
1957;SDS011;979;51.076;13.748;2023-05-29T04:53:37;18.70;;;17.53;;
1957;SDS011;979;51.076;13.748;2023-05-29T04:56:11;20.77;;;19.57;;
1957;SDS011;979;51.076;13.748;2023-05-29T04:58:40;19.23;;;18.23;;
1957;SDS011;979;51.076;13.748;2023-05-29T05:01:09;18.73;;;17.67;;
1957;SDS011;979;51.076;13.748;2023-05-29T05:03:41;19.40;;;18.30;;
1957;SDS011;979;51.076;13.748;2023-05-29T05:06:09;19.40;;;18.20;;
1957;SDS011;979;51.076;13.748;2023-05-29T05:08:39;19.30;;;18.30;;
1957;SDS011;979;51.076;13.748;2023-05-29T05:11:11;19.73;;;18.43;;
1957;SDS011;979;51.076;13.748;2023-05-29T05:13:40;19.73;;;18.50;;
1957;SDS011;979;51.076;13.748;2023-05-29T05:16:10;19.80;;;18.60;;
1957;SDS011;979;51.076;13.748;2023-05-29T05:18:40;19.17;;;18.13;;
1957;SDS011;979;51.076;13.748;2023-05-29T05:21:08;19.87;;;18.80;;
1957;SDS011;979;51.076;13.748;2023-05-29T05:23:38;20.30;;;19.03;;
1957;SDS011;979;51.076;13.748;2023-05-29T05:26:27;20.27;;;19.17;;
1957;SDS011;979;51.076;13.748;2023-05-29T05:28:55;19.47;;;18.57;;
1957;SDS011;979;51.076;13.748;2023-05-29T05:31:27;19.10;;;18.00;;
1957;SDS011;979;51.076;13.748;2023-05-29T05:33:57;19.70;;;18.70;;
1957;SDS011;979;51.076;13.748;2023-05-29T05:36:28;19.63;;;18.47;;
1957;SDS011;979;51.076;13.748;2023-05-29T05:39:04;19.37;;;18.40;;
1957;SDS011;979;51.076;13.748;2023-05-29T05:41:34;18.97;;;17.97;;
1957;SDS011;979;51.076;13.748;2023-05-29T05:44:02;18.23;;;17.13;;
1957;SDS011;979;51.076;13.748;2023-05-29T05:46:39;20.23;;;19.13;;
1957;SDS011;979;51.076;13.748;2023-05-29T05:49:10;19.53;;;18.43;;
1957;SDS011;979;51.076;13.748;2023-05-29T05:51:40;19.83;;;18.80;;
1957;SDS011;979;51.076;13.748;2023-05-29T05:54:09;20.03;;;18.73;;
1957;SDS011;979;51.076;13.748;2023-05-29T05:56:40;20.03;;;18.90;;
1957;SDS011;979;51.076;13.748;2023-05-29T05:59:13;19.50;;;18.50;;
1957;SDS011;979;51.076;13.748;2023-05-29T06:01:41;21.33;;;19.50;;
1957;SDS011;979;51.076;13.748;2023-05-29T06:04:12;20.10;;;19.10;;
1957;SDS011;979;51.076;13.748;2023-05-29T06:06:43;21.00;;;19.43;;
1957;SDS011;979;51.076;13.748;2023-05-29T06:09:12;19.60;;;18.67;;
1957;SDS011;979;51.076;13.748;2023-05-29T06:11:42;20.23;;;19.07;;
1957;SDS011;979;51.076;13.748;2023-05-29T06:14:14;21.93;;;20.73;;
1957;SDS011;979;51.076;13.748;2023-05-29T06:16:43;20.03;;;18.87;;
1957;SDS011;979;51.076;13.748;2023-05-29T06:19:12;20.80;;;19.37;;
1957;SDS011;979;51.076;13.748;2023-05-29T06:21:52;21.30;;;20.10;;
1957;SDS011;979;51.076;13.748;2023-05-29T06:24:21;20.97;;;19.87;;
1957;SDS011;979;51.076;13.748;2023-05-29T06:26:54;20.53;;;19.50;;
1957;SDS011;979;51.076;13.748;2023-05-29T06:29:23;21.23;;;19.83;;
1957;SDS011;979;51.076;13.748;2023-05-29T06:31:51;21.03;;;19.93;;
1957;SDS011;979;51.076;13.748;2023-05-29T06:34:22;21.60;;;20.30;;
1957;SDS011;979;51.076;13.748;2023-05-29T06:36:51;21.23;;;20.00;;
1957;SDS011;979;51.076;13.748;2023-05-29T06:39:19;21.77;;;20.40;;
1957;SDS011;979;51.076;13.748;2023-05-29T06:41:47;20.77;;;19.63;;
1957;SDS011;979;51.076;13.748;2023-05-29T06:44:18;22.23;;;20.93;;
1957;SDS011;979;51.076;13.748;2023-05-29T06:46:47;20.80;;;19.70;;
1957;SDS011;979;51.076;13.748;2023-05-29T06:49:32;21.37;;;20.27;;
1957;SDS011;979;51.076;13.748;2023-05-29T06:52:27;20.40;;;19.30;;
1957;SDS011;979;51.076;13.748;2023-05-29T06:55:37;21.10;;;19.90;;
1957;SDS011;979;51.076;13.748;2023-05-29T06:58:29;21.03;;;19.73;;
1957;SDS011;979;51.076;13.748;2023-05-29T07:02:02;20.40;;;19.30;;
1957;SDS011;979;51.076;13.748;2023-05-29T07:04:30;21.23;;;20.00;;
1957;SDS011;979;51.076;13.748;2023-05-29T07:07:03;21.47;;;20.27;;
1957;SDS011;979;51.076;13.748;2023-05-29T07:09:39;21.97;;;20.73;;
1957;SDS011;979;51.076;13.748;2023-05-29T07:12:11;22.17;;;20.67;;
1957;SDS011;979;51.076;13.748;2023-05-29T07:14:39;19.80;;;18.70;;
1957;SDS011;979;51.076;13.748;2023-05-29T07:17:11;18.00;;;17.20;;
1957;SDS011;979;51.076;13.748;2023-05-29T07:19:42;20.10;;;19.00;;
1957;SDS011;979;51.076;13.748;2023-05-29T07:22:10;21.73;;;20.27;;
1957;SDS011;979;51.076;13.748;2023-05-29T07:24:38;21.20;;;19.90;;
1957;SDS011;979;51.076;13.748;2023-05-29T07:27:07;20.97;;;19.77;;
1957;SDS011;979;51.076;13.748;2023-05-29T07:29:35;18.73;;;17.70;;
1957;SDS011;979;51.076;13.748;2023-05-29T07:32:04;20.73;;;19.73;;
1957;SDS011;979;51.076;13.748;2023-05-29T07:34:34;20.73;;;19.67;;
1957;SDS011;979;51.076;13.748;2023-05-29T07:37:05;20.20;;;19.07;;
1957;SDS011;979;51.076;13.748;2023-05-29T07:39:46;21.17;;;19.83;;
1957;SDS011;979;51.076;13.748;2023-05-29T07:42:40;20.50;;;19.40;;
1957;SDS011;979;51.076;13.748;2023-05-29T07:45:26;18.40;;;17.43;;
1957;SDS011;979;51.076;13.748;2023-05-29T07:48:06;19.90;;;18.90;;
1957;SDS011;979;51.076;13.748;2023-05-29T07:50:36;19.03;;;18.00;;
1957;SDS011;979;51.076;13.748;2023-05-29T07:53:06;19.07;;;17.93;;
1957;SDS011;979;51.076;13.748;2023-05-29T07:55:38;19.57;;;18.40;;
1957;SDS011;979;51.076;13.748;2023-05-29T07:58:06;19.03;;;18.10;;
1957;SDS011;979;51.076;13.748;2023-05-29T08:00:38;18.73;;;17.83;;
1957;SDS011;979;51.076;13.748;2023-05-29T08:03:07;19.67;;;17.97;;
1957;SDS011;979;51.076;13.748;2023-05-29T08:06:01;19.03;;;18.13;;
1957;SDS011;979;51.076;13.748;2023-05-29T08:08:34;19.77;;;18.87;;
1957;SDS011;979;51.076;13.748;2023-05-29T08:11:02;19.43;;;18.50;;
1957;SDS011;979;51.076;13.748;2023-05-29T08:14:13;20.97;;;19.60;;
1957;SDS011;979;51.076;13.748;2023-05-29T08:16:44;17.80;;;16.90;;
1957;SDS011;979;51.076;13.748;2023-05-29T08:19:25;17.10;;;16.20;;
1957;SDS011;979;51.076;13.748;2023-05-29T08:21:57;17.57;;;16.73;;
1957;SDS011;979;51.076;13.748;2023-05-29T08:24:25;16.80;;;16.10;;
1957;SDS011;979;51.076;13.748;2023-05-29T08:26:54;17.70;;;16.63;;
1957;SDS011;979;51.076;13.748;2023-05-29T08:29:22;17.50;;;16.80;;
1957;SDS011;979;51.076;13.748;2023-05-29T08:32:03;17.20;;;16.40;;
1957;SDS011;979;51.076;13.748;2023-05-29T08:34:46;19.20;;;18.20;;
1957;SDS011;979;51.076;13.748;2023-05-29T08:37:45;16.57;;;15.87;;
1957;SDS011;979;51.076;13.748;2023-05-29T08:40:13;17.10;;;16.40;;
1957;SDS011;979;51.076;13.748;2023-05-29T08:42:45;17.40;;;16.50;;
1957;SDS011;979;51.076;13.748;2023-05-29T08:45:24;17.50;;;16.73;;
1957;SDS011;979;51.076;13.748;2023-05-29T08:47:56;16.83;;;16.07;;
1957;SDS011;979;51.076;13.748;2023-05-29T08:50:34;18.77;;;17.53;;
1957;SDS011;979;51.076;13.748;2023-05-29T08:53:10;17.10;;;16.30;;
1957;SDS011;979;51.076;13.748;2023-05-29T08:55:40;17.67;;;16.83;;
1957;SDS011;979;51.076;13.748;2023-05-29T08:58:10;16.70;;;16.00;;
1957;SDS011;979;51.076;13.748;2023-05-29T09:01:30;18.27;;;17.27;;
1957;SDS011;979;51.076;13.748;2023-05-29T09:04:08;17.37;;;16.57;;
1957;SDS011;979;51.076;13.748;2023-05-29T09:06:46;17.37;;;16.57;;
1957;SDS011;979;51.076;13.748;2023-05-29T09:09:16;17.13;;;16.43;;
1957;SDS011;979;51.076;13.748;2023-05-29T09:15:08;16.50;;;15.80;;
1957;SDS011;979;51.076;13.748;2023-05-29T09:17:50;15.77;;;15.07;;
1957;SDS011;979;51.076;13.748;2023-05-29T09:20:22;16.50;;;15.80;;
1957;SDS011;979;51.076;13.748;2023-05-29T09:26:02;16.30;;;15.70;;
1957;SDS011;979;51.076;13.748;2023-05-29T09:28:31;15.97;;;15.40;;
1957;SDS011;979;51.076;13.748;2023-05-29T09:31:28;17.83;;;16.73;;
1957;SDS011;979;51.076;13.748;2023-05-29T09:34:18;16.77;;;15.70;;
1957;SDS011;979;51.076;13.748;2023-05-29T09:37:02;16.53;;;15.77;;
1957;SDS011;979;51.076;13.748;2023-05-29T09:39:45;15.97;;;15.33;;
1957;SDS011;979;51.076;13.748;2023-05-29T09:42:25;14.93;;;14.33;;
1957;SDS011;979;51.076;13.748;2023-05-29T09:45:09;17.20;;;16.50;;
1957;SDS011;979;51.076;13.748;2023-05-29T09:47:45;16.47;;;15.87;;
1957;SDS011;979;51.076;13.748;2023-05-29T09:50:19;15.60;;;14.87;;
1957;SDS011;979;51.076;13.748;2023-05-29T09:52:52;16.00;;;15.40;;
1957;SDS011;979;51.076;13.748;2023-05-29T09:55:21;16.90;;;16.10;;
1957;SDS011;979;51.076;13.748;2023-05-29T09:57:56;16.80;;;16.00;;
1957;SDS011;979;51.076;13.748;2023-05-29T10:00:52;17.03;;;16.23;;
1957;SDS011;979;51.076;13.748;2023-05-29T10:03:25;16.33;;;15.33;;
1957;SDS011;979;51.076;13.748;2023-05-29T10:06:21;16.50;;;15.90;;
1957;SDS011;979;51.076;13.748;2023-05-29T10:09:35;16.37;;;15.57;;
1957;SDS011;979;51.076;13.748;2023-05-29T10:21:04;17.50;;;16.63;;
1957;SDS011;979;51.076;13.748;2023-05-29T10:23:46;17.43;;;16.60;;
1957;SDS011;979;51.076;13.748;2023-05-29T10:26:18;17.60;;;16.63;;
1957;SDS011;979;51.076;13.748;2023-05-29T10:28:52;16.63;;;16.03;;
1957;SDS011;979;51.076;13.748;2023-05-29T10:31:26;16.87;;;16.10;;
1957;SDS011;979;51.076;13.748;2023-05-29T10:34:02;18.83;;;18.00;;
1957;SDS011;979;51.076;13.748;2023-05-29T10:36:43;17.07;;;16.37;;
1957;SDS011;979;51.076;13.748;2023-05-29T10:39:17;17.43;;;16.63;;
1957;SDS011;979;51.076;13.748;2023-05-29T10:41:51;17.77;;;16.97;;
1957;SDS011;979;51.076;13.748;2023-05-29T10:47:17;18.33;;;17.50;;
1957;SDS011;979;51.076;13.748;2023-05-29T10:49:50;16.20;;;15.43;;
1957;SDS011;979;51.076;13.748;2023-05-29T10:52:22;18.00;;;17.10;;
1957;SDS011;979;51.076;13.748;2023-05-29T10:54:52;17.17;;;16.57;;
1957;SDS011;979;51.076;13.748;2023-05-29T10:57:21;17.77;;;17.07;;
1957;SDS011;979;51.076;13.748;2023-05-29T10:59:57;17.53;;;16.73;;
1957;SDS011;979;51.076;13.748;2023-05-29T11:02:32;16.83;;;16.13;;
1957;SDS011;979;51.076;13.748;2023-05-29T11:07:58;18.27;;;17.33;;
1957;SDS011;979;51.076;13.748;2023-05-29T11:10:43;17.63;;;16.83;;
1957;SDS011;979;51.076;13.748;2023-05-29T11:13:23;17.17;;;16.47;;
1957;SDS011;979;51.076;13.748;2023-05-29T11:19:03;17.30;;;16.40;;
1957;SDS011;979;51.076;13.748;2023-05-29T11:21:45;18.03;;;17.20;;
1957;SDS011;979;51.076;13.748;2023-05-29T11:24:23;18.40;;;17.60;;
1957;SDS011;979;51.076;13.748;2023-05-29T11:26:53;19.10;;;18.00;;
1957;SDS011;979;51.076;13.748;2023-05-29T11:29:26;18.57;;;17.80;;
1957;SDS011;979;51.076;13.748;2023-05-29T11:31:58;18.17;;;17.33;;
1957;SDS011;979;51.076;13.748;2023-05-29T11:34:32;18.00;;;17.10;;
1957;SDS011;979;51.076;13.748;2023-05-29T11:37:01;17.50;;;16.70;;
1957;SDS011;979;51.076;13.748;2023-05-29T11:39:32;16.83;;;16.23;;
1957;SDS011;979;51.076;13.748;2023-05-29T11:42:04;17.70;;;16.87;;
1957;SDS011;979;51.076;13.748;2023-05-29T11:44:35;17.93;;;17.10;;
1957;SDS011;979;51.076;13.748;2023-05-29T11:47:04;18.23;;;17.30;;
1957;SDS011;979;51.076;13.748;2023-05-29T11:49:34;17.33;;;16.57;;
1957;SDS011;979;51.076;13.748;2023-05-29T11:52:07;17.50;;;16.73;;
1957;SDS011;979;51.076;13.748;2023-05-29T11:54:43;18.47;;;17.67;;
1957;SDS011;979;51.076;13.748;2023-05-29T11:57:18;19.00;;;18.10;;
1957;SDS011;979;51.076;13.748;2023-05-29T11:59:47;18.90;;;17.80;;
1957;SDS011;979;51.076;13.748;2023-05-29T12:02:18;17.97;;;17.07;;
1957;SDS011;979;51.076;13.748;2023-05-29T12:04:59;17.50;;;16.80;;
1957;SDS011;979;51.076;13.748;2023-05-29T12:07:28;17.97;;;17.27;;
1957;SDS011;979;51.076;13.748;2023-05-29T12:10:00;18.00;;;17.20;;
1957;SDS011;979;51.076;13.748;2023-05-29T12:12:36;17.87;;;17.00;;
1957;SDS011;979;51.076;13.748;2023-05-29T12:15:06;18.33;;;17.53;;
1957;SDS011;979;51.076;13.748;2023-05-29T12:17:54;18.57;;;17.77;;
1957;SDS011;979;51.076;13.748;2023-05-29T12:21:12;17.37;;;16.67;;
1957;SDS011;979;51.076;13.748;2023-05-29T12:23:51;17.87;;;17.07;;
1957;SDS011;979;51.076;13.748;2023-05-29T12:26:45;18.70;;;17.90;;
1957;SDS011;979;51.076;13.748;2023-05-29T12:29:38;18.13;;;17.37;;
1957;SDS011;979;51.076;13.748;2023-05-29T12:32:09;17.97;;;17.27;;
1957;SDS011;979;51.076;13.748;2023-05-29T12:34:50;17.73;;;16.90;;
1957;SDS011;979;51.076;13.748;2023-05-29T12:37:44;18.13;;;17.43;;
1957;SDS011;979;51.076;13.748;2023-05-29T12:40:23;18.50;;;17.70;;
1957;SDS011;979;51.076;13.748;2023-05-29T12:43:05;17.87;;;17.17;;
1957;SDS011;979;51.076;13.748;2023-05-29T12:46:01;16.93;;;16.33;;
1957;SDS011;979;51.076;13.748;2023-05-29T12:48:36;18.20;;;17.30;;
1957;SDS011;979;51.076;13.748;2023-05-29T12:51:14;17.17;;;16.57;;
1957;SDS011;979;51.076;13.748;2023-05-29T12:53:49;16.97;;;16.27;;
1957;SDS011;979;51.076;13.748;2023-05-29T12:56:34;17.00;;;16.30;;
1957;SDS011;979;51.076;13.748;2023-05-29T12:59:08;17.13;;;16.30;;
1957;SDS011;979;51.076;13.748;2023-05-29T13:01:39;16.80;;;16.10;;
1957;SDS011;979;51.076;13.748;2023-05-29T13:04:15;16.80;;;16.10;;
1957;SDS011;979;51.076;13.748;2023-05-29T13:06:44;18.00;;;17.20;;
1957;SDS011;979;51.076;13.748;2023-05-29T13:09:12;18.87;;;18.00;;
1957;SDS011;979;51.076;13.748;2023-05-29T13:11:50;16.97;;;16.47;;
1957;SDS011;979;51.076;13.748;2023-05-29T13:14:32;18.53;;;17.63;;
1957;SDS011;979;51.076;13.748;2023-05-29T13:17:01;18.37;;;17.37;;
1957;SDS011;979;51.076;13.748;2023-05-29T13:19:30;17.30;;;16.60;;
1957;SDS011;979;51.076;13.748;2023-05-29T13:21:59;17.27;;;16.60;;
1957;SDS011;979;51.076;13.748;2023-05-29T13:24:28;17.40;;;16.70;;
1957;SDS011;979;51.076;13.748;2023-05-29T13:26:57;17.83;;;17.00;;
1957;SDS011;979;51.076;13.748;2023-05-29T13:29:27;17.90;;;17.20;;
1957;SDS011;979;51.076;13.748;2023-05-29T13:31:59;18.00;;;17.10;;
1957;SDS011;979;51.076;13.748;2023-05-29T13:34:28;18.07;;;17.27;;
1957;SDS011;979;51.076;13.748;2023-05-29T13:37:01;16.73;;;16.03;;
1957;SDS011;979;51.076;13.748;2023-05-29T13:39:42;16.40;;;15.80;;
1957;SDS011;979;51.076;13.748;2023-05-29T13:42:13;18.60;;;17.60;;
1957;SDS011;979;51.076;13.748;2023-05-29T13:44:41;18.70;;;17.70;;
1957;SDS011;979;51.076;13.748;2023-05-29T13:47:11;18.30;;;17.60;;
1957;SDS011;979;51.076;13.748;2023-05-29T13:49:40;17.83;;;17.13;;
1957;SDS011;979;51.076;13.748;2023-05-29T13:52:11;17.60;;;16.90;;
1957;SDS011;979;51.076;13.748;2023-05-29T13:54:39;17.73;;;17.03;;
1957;SDS011;979;51.076;13.748;2023-05-29T13:57:08;17.87;;;17.17;;
1957;SDS011;979;51.076;13.748;2023-05-29T13:59:37;17.63;;;16.83;;
1957;SDS011;979;51.076;13.748;2023-05-29T14:02:08;17.37;;;16.67;;
1957;SDS011;979;51.076;13.748;2023-05-29T14:04:38;17.37;;;16.43;;
1957;SDS011;979;51.076;13.748;2023-05-29T14:07:09;17.57;;;16.67;;
1957;SDS011;979;51.076;13.748;2023-05-29T14:09:37;17.40;;;16.60;;
1957;SDS011;979;51.076;13.748;2023-05-29T14:12:06;17.40;;;16.60;;
1957;SDS011;979;51.076;13.748;2023-05-29T14:14:35;16.83;;;16.23;;
1957;SDS011;979;51.076;13.748;2023-05-29T14:17:04;17.30;;;16.70;;
1957;SDS011;979;51.076;13.748;2023-05-29T14:19:33;17.27;;;16.47;;
1957;SDS011;979;51.076;13.748;2023-05-29T14:22:03;17.60;;;16.80;;
1957;SDS011;979;51.076;13.748;2023-05-29T14:24:33;16.67;;;16.07;;
1957;SDS011;979;51.076;13.748;2023-05-29T14:27:03;17.60;;;16.77;;
1957;SDS011;979;51.076;13.748;2023-05-29T14:29:38;18.23;;;17.23;;
1957;SDS011;979;51.076;13.748;2023-05-29T14:32:07;17.17;;;16.40;;
1957;SDS011;979;51.076;13.748;2023-05-29T14:34:35;16.43;;;15.83;;
1957;SDS011;979;51.076;13.748;2023-05-29T14:37:05;17.60;;;16.80;;
1957;SDS011;979;51.076;13.748;2023-05-29T14:39:34;17.17;;;16.40;;
1957;SDS011;979;51.076;13.748;2023-05-29T14:42:03;17.43;;;16.73;;
1957;SDS011;979;51.076;13.748;2023-05-29T14:44:32;17.10;;;16.40;;
1957;SDS011;979;51.076;13.748;2023-05-29T14:47:03;17.53;;;16.63;;
1957;SDS011;979;51.076;13.748;2023-05-29T14:49:33;15.73;;;15.13;;
1957;SDS011;979;51.076;13.748;2023-05-29T14:52:06;16.43;;;15.83;;
1957;SDS011;979;51.076;13.748;2023-05-29T14:54:35;17.30;;;16.43;;
1957;SDS011;979;51.076;13.748;2023-05-29T14:57:03;16.57;;;15.87;;
1957;SDS011;979;51.076;13.748;2023-05-29T15:02:55;16.67;;;15.97;;
1957;SDS011;979;51.076;13.748;2023-05-29T15:05:39;17.43;;;16.60;;
1957;SDS011;979;51.076;13.748;2023-05-29T15:08:34;18.70;;;17.53;;
1957;SDS011;979;51.076;13.748;2023-05-29T15:11:37;16.67;;;16.07;;
1957;SDS011;979;51.076;13.748;2023-05-29T15:14:06;18.17;;;17.37;;
1957;SDS011;979;51.076;13.748;2023-05-29T15:16:35;17.40;;;16.70;;
1957;SDS011;979;51.076;13.748;2023-05-29T15:19:07;17.70;;;17.00;;
1957;SDS011;979;51.076;13.748;2023-05-29T15:22:23;17.90;;;17.20;;
1957;SDS011;979;51.076;13.748;2023-05-29T15:28:15;17.00;;;16.40;;
1957;SDS011;979;51.076;13.748;2023-05-29T15:31:39;18.97;;;18.17;;
1957;SDS011;979;51.076;13.748;2023-05-29T15:34:18;17.77;;;16.97;;
1957;SDS011;979;51.076;13.748;2023-05-29T15:36:47;18.00;;;17.00;;
1957;SDS011;979;51.076;13.748;2023-05-29T15:39:21;16.90;;;16.20;;
1957;SDS011;979;51.076;13.748;2023-05-29T15:41:56;17.77;;;16.97;;
1957;SDS011;979;51.076;13.748;2023-05-29T15:44:24;17.93;;;17.03;;
1957;SDS011;979;51.076;13.748;2023-05-29T15:46:53;17.50;;;16.67;;
1957;SDS011;979;51.076;13.748;2023-05-29T15:49:22;17.80;;;17.00;;
1957;SDS011;979;51.076;13.748;2023-05-29T15:51:50;16.63;;;15.93;;
1957;SDS011;979;51.076;13.748;2023-05-29T15:54:23;17.17;;;16.37;;
1957;SDS011;979;51.076;13.748;2023-05-29T15:56:57;17.27;;;16.53;;
1957;SDS011;979;51.076;13.748;2023-05-29T15:59:31;16.73;;;16.00;;